Pagina principale
METAR-TAF:

METAR-TAF

Aeroporti :

Memmingen, Germania

latitudine: 47-59-33N, longitudine: 10-14-37E, altezza: 633 m

Osservazione

Il bollettino è stato emesso 27 minuti fa, alle 15:50 UTC
Vento 5 kt da nord, variando fra nord-ovest e nord-est
Temperature 25°C
Umidità 54%
Pressione 1021 hPa
Visibilità 10 km o più
nessuna nube inferiore a 1500 m e nessun cumulonembo

METAR: EDJA 181550Z 35005KT 310V040 CAVOK 25/15 Q1021

Ora: 18:17 (16:17 UTC)

Previsione

Il bollettino è stato emesso 2 ore e 17 minuti fa, alle 14:00 UTC
Previsione valida dal 18 alle 15 UTC al 18 alle 24 UTC
Vento 5 kt da nord/nord-ovest
Visibilità 10 km o più
Nubi sparse ad un'altezza di 3500 ft
Probabilità 30% :
Temporaneamente
dal 18 alle 15 UTC al 18 alle 19 UTC
Vento 15 kt da nord/nord-ovest con raffiche fino a 25 kt
Nubi sparse ad un'altezza di 3500 ft, Cumulonembo.
temporale, pioggia

TAF: EDJA 181400Z 1815/1824 34005KT 9999 SCT035 PROB30 TEMPO 1815/1819 34015G25KT TSRA SCT035CB

Osservazioni e previsioni meteorologiche di più di 4000 aeroporti (messaggi METAR e TAF).

Le stazioni disponibili sono rappresentate dai dischi gialli e rossi sulla carta.

Puntare il mouse per vedere il nome della stazione.

Clicca sopra per visualizzare le osservazioni e previsioni meteorologiche.

Per cambiare la mappa : fare clic sui pulsanti verdi con una croce nera per ingrandire, il pulsante verde con un trattino per diminuire, o sulla freccia verde per le mappe adiacenti.


METAR-TAF: